KBDR/BDR METAR and TAF weather

Enter ICAO airport designator
Station Type Date Time Source
KBDR METAR 2022/01/25 05:52 UTC NOAA

KBDR 250552Z AUTO 16006KT 10SM OVC065 01/M01 A2986 RMK AO2 SLP110 60001 T00111011 10011 21011 58014


Station Type Date Time Source
KBDR Decoded METAR 2022/01/25 05:52 UTC NOAA

SIKORSKY MEMORIAL AIRPORT, CT, United States (KBDR) 41-10N 073-08W 7M
Jan 25, 2022 - 12:52 AM EST / 2022.01.25 0552 UTC
Wind: from the SSE (160 degrees) at 7 MPH (6 KT):0
Visibility: 10 mile(s):0
Sky conditions: overcast
Temperature: 34.0 F (1.1 C)
Windchill: 28 F (-2 C):1
Dew Point: 30.0 F (-1.1 C)
Relative Humidity: 85%
Pressure (altimeter): 29.86 in. Hg (1011 hPa)
Pressure tendency: 0.04 inches (1.4 hPa) lower than three hours ago
ob: KBDR 250552Z AUTO 16006KT 10SM OVC065 01/M01 A2986 RMK AO2 SLP110 60001 T00111011 10011 21011 58014
cycle: 6

Station Type Date Time Source
KBDR TAF 2022/01/25 06:42 UTC NOAA

TAF KBDR 250540Z 2506/2606 19007KT P6SM OVC050
FM251100 24005KT P6SM SCT050 BKN100
FM251500 26008KT P6SM FEW070 BKN120
FM251800 28011G18KT P6SM SCT050
FM252300 30009KT P6SM SKC
FM260208 33008KT P6SM SKC

Example: see airport list